Buoy 41991

sailwx.info

Track history (hours):
 
Tides and Currents Weather Stations Pressure Air Temp Water Temp Dewpoint Dewpoint Depression Visibility Wind Speed Wind Dir Waves Ship Positions

Drifting buoy 41991

Last reported at 2014-Aug-22 14:37 UTC. Time now 2014-Aug-22 15:44 UTC.
Position N 36°01' W 044°23'.

Water temperature 26.3 ° C

Date/timePositionNaut miles runAvg speedWind from/ knotsBaromVisibWave heightAir tempDewpointWater temp
2014-Aug-22 14:37N 36°01' W 044°23'0 0.0 26.3
2014-Aug-22 14:26N 36°01' W 044°23'0 0.2 26.3
2014-Aug-22 12:48N 36°01' W 044°23'0 0.0 26.3
2014-Aug-22 12:45N 36°01' W 044°23'0 0.5 26.3
2014-Aug-22 11:51N 36°01' W 044°22'0 0.0 26.2
2014-Aug-22 11:05N 36°01' W 044°22'0 2.6 26.2
2014-Aug-22 10:59N 36°01' W 044°22'0 0.1 26.2
2014-Aug-22 09:32N 36°01' W 044°22'0 3.3 26.2
2014-Aug-22 09:25N 36°02' W 044°21'0 0.4 26.2
2014-Aug-22 09:09N 36°02' W 044°22'0 0.5 26.2
2014-Aug-22 08:58N 36°02' W 044°21'0 0.0 26.2
2014-Aug-22 08:55N 36°02' W 044°21'0 1.5 26.2
2014-Aug-22 08:51N 36°02' W 044°21'1 7.8 26.2
2014-Aug-22 08:47N 36°02' W 044°21'0 0.3 26.2
2014-Aug-22 07:52N 36°02' W 044°21'0 6.3 26.2
2014-Aug-22 07:49N 36°02' W 044°21'0 0.0 26.2
2014-Aug-22 07:29N 36°02' W 044°21'0 0.3 26.2
2014-Aug-22 07:13N 36°02' W 044°21'0 7.3 26.3
2014-Aug-22 07:11N 36°02' W 044°20'0 0.1 26.3
2014-Aug-22 06:36N 36°02' W 044°20'1 5.0 26.3
2014-Aug-22 06:27N 36°02' W 044°20'0 0.0 26.3
2014-Aug-22 04:54N 36°02' W 044°20'1 0.4 26.3
2014-Aug-22 02:06N 36°03' W 044°19'0 0.1 26.4
2014-Aug-22 01:18N 36°03' W 044°19'0 3.2 26.5
2014-Aug-22 01:13N 36°03' W 044°18'0 0.0 26.5
2014-Aug-22 00:28N 36°03' W 044°18'0 0.0 26.5
2014-Aug-22 00:23N 36°03' W 044°18'1 0.8 26.5
2014-Aug-21 23:38N 36°03' W 044°18'0 0.0 26.5
2014-Aug-21 23:29N 36°03' W 044°18'1 1.0 26.6
2014-Aug-21 22:47N 36°03' W 044°18'1 4.2 26.6
2014-Aug-21 22:39N 36°03' W 044°18'0 0.2 26.6
2014-Aug-21 21:55N 36°03' W 044°18'0 0.2 26.6
2014-Aug-21 21:12N 36°03' W 044°18'0 0.4 26.6
2014-Aug-21 20:33N 36°03' W 044°17'0 0.5 26.7
2014-Aug-21 20:06N 36°03' W 044°17'0 0.0 26.7
2014-Aug-21 19:34N 36°03' W 044°17'0 1.6 26.7
2014-Aug-21 19:27N 36°02' W 044°17'0 0.0
2014-Aug-21 18:53N 36°02' W 044°17'0 0.0 26.7
2014-Aug-21 18:10N 36°02' W 044°17'0 1.5 26.7
2014-Aug-21 17:52N 36°03' W 044°18'1 1.9 26.7
2014-Aug-21 17:08N 36°02' W 044°16'0 0.0 26.7
2014-Aug-21 16:30N 36°02' W 044°16'0 0.0 26.6
2014-Aug-21 16:23N 36°02' W 044°16'1 0.4 26.6
2014-Aug-21 14:50N 36°02' W 044°15'1 0.8 26.6
2014-Aug-21 13:59N 36°02' W 044°15'1 8.2 26.5
2014-Aug-21 13:52N 36°01' W 044°14'0 0.7 26.5
2014-Aug-21 13:09N 36°01' W 044°14'0 3.3 26.3
2014-Aug-21 13:00N 36°01' W 044°14'0 0.0 26.3
2014-Aug-21 12:13N 36°01' W 044°14'143.8 26.3
2014-Aug-21 12:12N 36°01' W 044°13'0 0.0 26.2
2014-Aug-21 11:27N 36°01' W 044°13'110.3 26.2
2014-Aug-21 11:22N 36°01' W 044°12'0 0.0 26.2
2014-Aug-21 09:51N 36°01' W 044°12'1 6.3 26.2
2014-Aug-21 09:45N 36°01' W 044°11'0 0.0 26.2
2014-Aug-21 09:06N 36°01' W 044°11'1 5.0 26.2
2014-Aug-21 08:59N 36°01' W 044°10'0 0.1 26.2
2014-Aug-21 08:11N 36°01' W 044°10'0 1.1 26.1
2014-Aug-21 08:00N 36°01' W 044°10'0 0.2 26.2
2014-Aug-21 07:26N 36°01' W 044°10'1 4.5 26.2
2014-Aug-21 07:17N 36°01' W 044°09'0 0.0 26.2
2014-Aug-21 06:47N 36°01' W 044°09'1 3.6 26.2
2014-Aug-21 06:38N 36°01' W 044°09'0 0.0 26.2
2014-Aug-21 06:19N 36°01' W 044°09'0 0.0 26.2
2014-Aug-21 05:41N 36°01' W 044°09'0 0.0 26.2
2014-Aug-21 05:00N 36°01' W 044°09'141.7 26.2
2014-Aug-21 04:58N 36°02' W 044°07'0 0.0 26.2
2014-Aug-21 03:22N 36°02' W 044°07'0 0.0 26.2
2014-Aug-21 03:18N 36°02' W 044°07'0 0.0 26.2
2014-Aug-21 01:35N 36°02' W 044°07'0 0.1 26.2
2014-Aug-21 00:45N 36°02' W 044°07'0 0.3 26.3
2014-Aug-20 23:59N 36°01' W 044°07'0 2.7 26.4
2014-Aug-20 23:52N 36°01' W 044°07'0 0.0 26.4
2014-Aug-20 23:09N 36°01' W 044°07'0 2.3 26.4
2014-Aug-20 23:00N 36°01' W 044°07'0 0.0 26.3
2014-Aug-20 22:26N 36°01' W 044°07'0 1.8 26.3
2014-Aug-20 22:13N 36°01' W 044°06'0 0.0 26.4
2014-Aug-20 20:43N 36°01' W 044°06'0 2.7 26.6
2014-Aug-20 20:35N 36°01' W 044°06'0 0.2 26.6
2014-Aug-20 20:00N 36°01' W 044°06'1 5.9 26.6
2014-Aug-20 19:53N 36°01' W 044°05'0 0.0 26.6
2014-Aug-20 18:59N 36°01' W 044°05'012.7 26.6
2014-Aug-20 18:57N 36°00' W 044°05'0 0.0 26.6
2014-Aug-20 18:22N 36°00' W 044°05'0 0.5 26.6
2014-Aug-20 18:13N 36°00' W 044°05'2 1.9 26.6
2014-Aug-20 17:23N 35°59' W 044°04'0 0.1 26.6
2014-Aug-20 16:44N 35°59' W 044°04'1 7.0 26.6
2014-Aug-20 16:35N 35°59' W 044°03'0 0.0 26.6
2014-Aug-20 15:04N 35°59' W 044°03'0 0.0 26.6
2014-Aug-20 15:00N 35°59' W 044°03'0 0.5 26.6
2014-Aug-20 14:21N 35°59' W 044°02'1 8.3 26.6
2014-Aug-20 14:14N 35°59' W 044°01'0 0.0 26.6
2014-Aug-20 12:39N 35°59' W 044°01'1 6.3 26.2
2014-Aug-20 12:32N 35°59' W 044°00'1 0.7 26.2
2014-Aug-20 11:42N 35°59' W 044°01'1 0.6 26.0
2014-Aug-20 10:18N 35°58' W 044°00'0 0.6 26.0
2014-Aug-20 10:13N 35°58' W 044°00'0 2.8 26.0
2014-Aug-20 10:09N 35°58' W 044°00'1 0.9 26.0
2014-Aug-20 09:18N 35°59' W 043°59'1 1.2 26.0
2014-Aug-20 08:33N 35°59' W 043°58'0 0.0 26.0
2014-Aug-20 07:36N 35°59' W 043°58'0 3.7 26.1
2014-Aug-20 07:31N 35°59' W 043°58'0 0.2 26.1
2014-Aug-20 06:57N 35°59' W 043°58'0 2.8 26.1
2014-Aug-20 06:53N 35°59' W 043°58'0 0.0 26.1
2014-Aug-20 06:50N 35°59' W 043°58'0 0.0 26.1
2014-Aug-20 05:56N 35°59' W 043°58'0 0.3 26.1
2014-Aug-20 05:13N 35°59' W 043°58'1 6.2 26.2
2014-Aug-20 05:08N 35°59' W 043°57'0 0.0 26.2
2014-Aug-20 03:35N 35°59' W 043°57'0 0.9 26.2
2014-Aug-20 03:30N 35°59' W 043°57'0 0.2 26.2
2014-Aug-20 01:57N 35°59' W 043°57'0 0.2 26.2
2014-Aug-20 01:09N 35°58' W 043°57'0 1.5 26.2
2014-Aug-20 01:00N 35°59' W 043°57'0 0.6 26.2
2014-Aug-20 00:19N 35°58' W 043°57'0 0.0 26.2
2014-Aug-19 23:29N 35°58' W 043°57'0 1.7 26.2
2014-Aug-19 23:20N 35°59' W 043°57'0 0.0 26.2
2014-Aug-19 22:55N 35°59' W 043°57'0 1.2 26.2
2014-Aug-19 22:41N 35°58' W 043°57'113.2 26.2
2014-Aug-19 22:36N 35°57' W 043°57'0 0.0 26.2
2014-Aug-19 21:46N 35°57' W 043°57'0 0.0 26.3
2014-Aug-19 20:54N 35°57' W 043°57'121.7 26.3
2014-Aug-19 20:51N 35°57' W 043°56'0 0.0 26.3
2014-Aug-19 20:22N 35°57' W 043°56'0 0.0 26.3
2014-Aug-19 19:30N 35°57' W 043°56'0 0.0 26.4
2014-Aug-19 19:14N 35°57' W 043°56'0 0.2 26.4
2014-Aug-19 18:44N 35°57' W 043°56'0 0.8 26.5
2014-Aug-19 18:37N 35°57' W 043°56'1 5.4 26.5
2014-Aug-19 18:31N 35°57' W 043°55'0 0.0 26.5
2014-Aug-19 17:34N 35°57' W 043°55'026.5 26.3
2014-Aug-19 17:33N 35°57' W 043°55'0 0.0 26.3
2014-Aug-19 16:53N 35°57' W 043°55'1 0.8 26.3
2014-Aug-19 15:12N 35°57' W 043°53'1 0.4 26.2
2014-Aug-19 13:50N 35°57' W 043°53'0 0.0 26.1
2014-Aug-19 13:03N 35°57' W 043°53'0 0.0 26.0
2014-Aug-19 13:00N 35°57' W 043°53'0 0.4 26.0
2014-Aug-19 12:08N 35°57' W 043°52'0 2.9 26.0
2014-Aug-19 12:03N 35°57' W 043°52'1 1.2 26.0
2014-Aug-19 11:20N 35°58' W 043°53'110.2 25.9
2014-Aug-19 11:16N 35°58' W 043°54'1 0.9 25.9
2014-Aug-19 10:37N 35°58' W 043°53'0 0.0 25.9
2014-Aug-19 09:29N 35°58' W 043°53'0 2.0 25.9
2014-Aug-19 09:22N 35°58' W 043°53'0 0.0 25.9
2014-Aug-19 08:59N 35°58' W 043°53'0 4.6 25.9
2014-Aug-19 08:55N 35°58' W 043°53'0 0.0 25.9
2014-Aug-19 07:48N 35°58' W 043°53'0 0.8 26.0
2014-Aug-19 07:24N 35°58' W 043°53'0 0.0 26.0
2014-Aug-19 07:23N 35°58' W 043°53'0 0.9 26.0
2014-Aug-19 07:08N 35°58' W 043°53'0 1.0 26.0
2014-Aug-19 07:00N 35°58' W 043°53'0 0.0
2014-Aug-19 05:27N 35°58' W 043°53'0 3.2 26.0
2014-Aug-19 05:21N 35°57' W 043°53'0 0.0 26.0
2014-Aug-19 03:45N 35°57' W 043°53'1 9.6 26.0
2014-Aug-19 03:40N 35°57' W 043°53'0 0.1 26.0
2014-Aug-19 01:28N 35°57' W 043°53'0 1.0 26.2
2014-Aug-19 01:22N 35°57' W 043°53'0 0.2 26.2
2014-Aug-19 00:43N 35°56' W 043°53'0 0.1 26.2
2014-Aug-18 23:44N 35°57' W 043°53'0 0.6 26.2
2014-Aug-18 23:23N 35°57' W 043°52'0 0.9 26.2
2014-Aug-18 23:00N 35°56' W 043°53'0 0.4 26.2
2014-Aug-18 22:08N 35°56' W 043°52'0 5.3 26.3
2014-Aug-18 22:03N 35°56' W 043°52'0 0.0 26.3
2014-Aug-18 21:45N 35°56' W 043°52'0 0.2 26.3
2014-Aug-18 20:44N 35°56' W 043°52'0 0.1 26.4
2014-Aug-18 20:07N 35°56' W 043°52'0 1.3 26.4
2014-Aug-18 20:00N 35°56' W 043°52'0 0.1 26.4
2014-Aug-18 19:28N 35°56' W 043°52'1 1.7 26.4
2014-Aug-18 19:06N 35°56' W 043°51'0 0.0 26.5
2014-Aug-18 17:46N 35°56' W 043°51'0 1.4 26.4
2014-Aug-18 17:25N 35°56' W 043°50'0 0.1 26.4
2014-Aug-18 17:05N 35°56' W 043°50'0 0.6 26.4
2014-Aug-18 17:00N 35°56' W 043°50'1 0.6 26.4
2014-Aug-18 15:23N 35°56' W 043°49'1 0.8 26.4
2014-Aug-18 14:10N 35°57' W 043°49'0 0.0 26.2
2014-Aug-18 13:24N 35°57' W 043°49'1 4.0 26.1
2014-Aug-18 13:13N 35°58' W 043°49'0 0.6 26.0
2014-Aug-18 12:21N 35°58' W 043°49'2 1.9 26.0
2014-Aug-18 11:33N 35°59' W 043°51'0 0.0 25.9
2014-Aug-18 10:45N 35°59' W 043°51'0 0.0 25.9
2014-Aug-18 09:41N 35°59' W 043°51'0 2.0 25.9
2014-Aug-18 09:34N 35°59' W 043°51'0 0.0 25.9
2014-Aug-18 09:30N 35°59' W 043°51'0 2.4 25.8
2014-Aug-18 09:25N 35°59' W 043°51'0 0.0 25.8
2014-Aug-18 07:59N 35°59' W 043°51'0 1.1 25.9
2014-Aug-18 07:47N 35°59' W 043°51'0 2.1 25.9
2014-Aug-18 07:40N 35°59' W 043°51'0 0.0 25.9
2014-Aug-18 07:18N 35°59' W 043°51'0 3.8 25.9
2014-Aug-18 07:13N 35°59' W 043°51'0 0.0 25.9
2014-Aug-18 06:19N 35°59' W 043°51'0 2.2 25.9
2014-Aug-18 06:14N 35°59' W 043°51'0 0.3 25.9
2014-Aug-18 05:35N 35°59' W 043°51'0 0.3 25.9
2014-Aug-18 03:57N 35°58' W 043°51'113.1 26.0
2014-Aug-18 03:51N 35°57' W 043°50'0 0.0 26.0
2014-Aug-18 01:48N 35°57' W 043°50'0 5.0 26.0
2014-Aug-18 01:43N 35°57' W 043°50'0 0.0 26.0
2014-Aug-18 01:00N 35°57' W 043°50'1 7.1 26.0
2014-Aug-18 00:55N 35°57' W 043°49'0 0.0 26.0
2014-Aug-18 00:10N 35°57' W 043°49'0 0.0 26.0
2014-Aug-18 00:05N 35°57' W 043°49'0 0.3 26.0
2014-Aug-17 23:22N 35°57' W 043°49'1 4.4 26.1
2014-Aug-17 23:13N 35°58' W 043°49'0 0.0 26.2
2014-Aug-17 22:29N 35°58' W 043°49'1 3.7 26.3
2014-Aug-17 22:20N 35°58' W 043°48'0 4.9 26.3
2014-Aug-17 22:14N 35°58' W 043°49'0 0.5 26.3
2014-Aug-17 21:12N 35°58' W 043°48'1 1.3 26.6
2014-Aug-17 20:29N 35°59' W 043°47'0 0.0
2014-Aug-17 19:39N 35°59' W 043°47'0 1.1 26.9
2014-Aug-17 19:32N 35°59' W 043°47'1 0.8 26.9
2014-Aug-17 17:57N 35°60' W 043°46'1 4.7 27.0
2014-Aug-17 17:49N 36°00' W 043°46'0 0.2 27.0
2014-Aug-17 17:15N 36°01' W 043°46'2 0.9 26.9
2014-Aug-17 15:29N 36°02' W 043°45'2 1.5 26.6
2014-Aug-17 14:29N 36°03' W 043°46'0 0.2 26.2
2014-Aug-17 13:44N 36°03' W 043°46'1 4.8 26.0
2014-Aug-17 13:35N 36°04' W 043°46'1 0.8 26.0
2014-Aug-17 12:42N 36°05' W 043°47'0 0.0 25.9
2014-Aug-17 11:59N 36°05' W 043°47'1 1.1 25.8
2014-Aug-17 11:04N 36°05' W 043°48'0 0.2 25.8
2014-Aug-17 09:51N 36°05' W 043°48'0 1.2 25.8
2014-Aug-17 09:47N 36°05' W 043°48'0 0.0 25.8
2014-Aug-17 08:27N 36°05' W 043°48'0 0.6 25.8
2014-Aug-17 08:11N 36°05' W 043°48'1 5.8 25.8
2014-Aug-17 08:05N 36°05' W 043°49'0 0.0 25.8
2014-Aug-17 07:28N 36°05' W 043°49'1 9.9 25.8
2014-Aug-17 07:23N 36°05' W 043°48'0 0.0 25.8
2014-Aug-17 06:45N 36°05' W 043°48'0 0.4 25.8
2014-Aug-17 06:27N 36°05' W 043°48'1 1.9 25.8
2014-Aug-17 05:45N 36°05' W 043°46'0 0.0 25.8
2014-Aug-17 05:39N 36°05' W 043°46'0 0.1 25.8
2014-Aug-17 04:08N 36°05' W 043°46'210.3 25.8
2014-Aug-17 03:59N 36°06' W 043°45'0 0.0 25.8
2014-Aug-17 02:09N 36°06' W 043°45'2 2.2 25.9
2014-Aug-17 01:22N 36°07' W 043°43'0 0.0 25.9
2014-Aug-17 00:31N 36°07' W 043°43'0 0.7 25.9
2014-Aug-17 00:27N 36°07' W 043°43'1 1.5 25.9
2014-Aug-16 23:41N 36°08' W 043°42'1 7.0 25.9
2014-Aug-16 23:34N 36°09' W 043°41'0 0.0 25.9
2014-Aug-16 22:51N 36°09' W 043°41'0 0.0 25.9
2014-Aug-16 22:47N 36°09' W 043°41'127.3 25.9
2014-Aug-16 22:44N 36°10' W 043°41'0 0.0 25.9
2014-Aug-16 21:34N 36°10' W 043°41'1 2.2 25.9
2014-Aug-16 21:13N 36°11' W 043°41'2 7.0 25.9
2014-Aug-16 21:00N 36°12' W 043°41'0 0.2 25.9
2014-Aug-16 19:51N 36°13' W 043°41'1 3.5 26.0
2014-Aug-16 19:26N 36°14' W 043°41'0 0.1 26.0
2014-Aug-16 18:13N 36°14' W 043°41'0 0.0 26.0
2014-Aug-16 18:07N 36°14' W 043°41'0 0.7 26.0
2014-Aug-16 18:00N 36°14' W 043°41'1 1.4 26.0
2014-Aug-16 17:26N 36°15' W 043°41'112.5 26.0
2014-Aug-16 17:19N 36°16' W 043°42'0 0.2 26.0
2014-Aug-16 15:45N 36°16' W 043°42'1 0.6 26.0
2014-Aug-16 13:59N 36°17' W 043°42'0 2.4 25.9
2014-Aug-16 13:56N 36°18' W 043°42'121.1 25.9
2014-Aug-16 13:54N 36°18' W 043°42'0 0.0 25.9
2014-Aug-16 12:23N 36°18' W 043°42'0 2.6 25.8
2014-Aug-16 12:14N 36°19' W 043°42'0 0.2 25.8
2014-Aug-16 11:24N 36°19' W 043°42'1 1.0 25.7
2014-Aug-16 10:13N 36°20' W 043°41'0 0.0 25.7
2014-Aug-16 09:59N 36°20' W 043°41'0 0.0 25.7
2014-Aug-16 08:58N 36°20' W 043°41'0 0.5 25.7
2014-Aug-16 08:37N 36°20' W 043°41'0 1.1 25.7
2014-Aug-16 08:21N 36°20' W 043°41'1 9.1 25.7
2014-Aug-16 08:17N 36°20' W 043°40'0 0.0 25.7
2014-Aug-16 07:38N 36°20' W 043°40'0 0.0 25.7
2014-Aug-16 07:18N 36°20' W 043°40'1 1.5 25.7
2014-Aug-16 06:57N 36°21' W 043°40'0 0.3 25.7
2014-Aug-16 06:42N 36°21' W 043°40'1 5.7 25.7
2014-Aug-16 06:35N 36°21' W 043°40'0 0.0 25.7
2014-Aug-16 06:00N 36°21' W 043°40'0 1.4 25.8
2014-Aug-16 05:58N 36°21' W 043°40'117.0 25.8
2014-Aug-16 05:54N 36°21' W 043°39'240.8 25.8
2014-Aug-16 05:51N 36°23' W 043°39'0 0.0 25.8
2014-Aug-16 04:20N 36°23' W 043°39'433.4 25.8
2014-Aug-16 04:13N 36°26' W 043°37'0 0.1 25.8
2014-Aug-16 00:53N 36°26' W 043°37'2 2.6 25.9
2014-Aug-16 00:05N 36°28' W 043°36'0 0.0 25.9
2014-Aug-15 23:58N 36°28' W 043°36'0 0.0 25.9
2014-Aug-15 23:18N 36°28' W 043°36'0 1.6 25.9
2014-Aug-15 23:11N 36°28' W 043°36'1 7.8 25.9
2014-Aug-15 23:04N 36°29' W 043°36'0 0.0 25.9
2014-Aug-15 22:23N 36°29' W 043°36'1 1.0 26.0
2014-Aug-15 21:44N 36°30' W 043°36'2 1.3 26.1
2014-Aug-15 20:22N 36°32' W 043°37'010.7 26.3
2014-Aug-15 20:20N 36°32' W 043°37'0 0.0 26.3
2014-Aug-15 19:59N 36°32' W 043°37'122.2 26.3
2014-Aug-15 19:55N 36°33' W 043°38'0 0.2 26.3
2014-Aug-15 18:42N 36°33' W 043°37'0 0.0 26.3
2014-Aug-15 18:37N 36°33' W 043°37'0 0.3 26.3
2014-Aug-15 18:21N 36°33' W 043°37'1 1.1 26.2
2014-Aug-15 17:38N 36°34' W 043°38'1 0.8 26.1
2014-Aug-15 16:37N 36°35' W 043°39'0 0.0 26.0
2014-Aug-15 15:56N 36°35' W 043°39'0 0.0 25.9
2014-Aug-15 15:06N 36°35' W 043°39'1 1.1 25.9
2014-Aug-15 14:23N 36°35' W 043°39'1 3.7 25.8
2014-Aug-15 14:13N 36°35' W 043°39'1 0.6 25.8
2014-Aug-15 12:42N 36°35' W 043°39'0 0.5 25.8
2014-Aug-15 11:52N 36°36' W 043°39'0 1.7 25.8
2014-Aug-15 11:48N 36°36' W 043°39'119.6 25.8
2014-Aug-15 11:45N 36°37' W 043°39'0 0.0 25.8
2014-Aug-15 10:39N 36°37' W 043°39'0 1.7 25.7
2014-Aug-15 10:35N 36°37' W 043°39'0 0.0 25.7
2014-Aug-15 09:29N 36°37' W 043°39'0 0.5 25.7
2014-Aug-15 08:59N 36°37' W 043°39'0 4.5 25.7
2014-Aug-15 08:54N 36°37' W 043°39'0 0.1 25.7
2014-Aug-15 08:34N 36°37' W 043°39'0 2.1 25.7
2014-Aug-15 08:25N 36°38' W 043°39'0 0.1 25.7
2014-Aug-15 07:48N 36°38' W 043°39'0 0.9 25.8
2014-Aug-15 07:23N 36°38' W 043°39'0 1.4 25.8
2014-Aug-15 07:14N 36°38' W 043°39'0 0.0 25.8
2014-Aug-15 06:54N 36°38' W 043°39'0 4.1 25.8
2014-Aug-15 06:47N 36°39' W 043°39'0 0.0 25.8
2014-Aug-15 06:13N 36°39' W 043°39'0 1.0 25.8
2014-Aug-15 06:06N 36°39' W 043°39'118.7 25.8
2014-Aug-15 06:02N 36°40' W 043°39'0 0.0 25.8
2014-Aug-15 04:30N 36°40' W 043°39'215.0 25.8
2014-Aug-15 04:22N 36°42' W 043°40'0 0.1 25.8
2014-Aug-15 01:13N 36°42' W 043°40'1 6.0 25.8
2014-Aug-15 01:04N 36°42' W 043°41'0 0.0 25.8
2014-Aug-15 00:25N 36°42' W 043°41'0 0.6 25.9
2014-Aug-14 23:34N 36°43' W 043°41'1 3.6 25.9
2014-Aug-14 23:25N 36°43' W 043°41'0 0.0 25.9
2014-Aug-14 22:44N 36°43' W 043°41'0 2.5 25.9
2014-Aug-14 22:36N 36°43' W 043°42'0 0.0 25.9
2014-Aug-14 22:15N 36°43' W 043°42'1 0.8 25.9
2014-Aug-14 20:46N 36°44' W 043°43'0 0.0 26.0
2014-Aug-14 20:28N 36°44' W 043°43'0 4.9 26.0
2014-Aug-14 20:25N 36°44' W 043°43'0 1.8 26.0
2014-Aug-14 20:12N 36°44' W 043°43'1 0.7 26.0
2014-Aug-14 19:08N 36°44' W 043°43'0 0.4 26.0
2014-Aug-14 18:32N 36°44' W 043°44'0 0.6 26.0
2014-Aug-14 17:48N 36°44' W 043°44'0 0.3 26.0
2014-Aug-14 16:49N 36°44' W 043°43'0 0.0 25.9
2014-Aug-14 16:08N 36°44' W 043°43'1 0.5 25.9
2014-Aug-14 14:37N 36°44' W 043°43'0 0.0 25.8
2014-Aug-14 14:26N 36°44' W 043°43'0 0.2 25.8
2014-Aug-14 13:06N 36°45' W 043°43'1 3.2 25.7
2014-Aug-14 12:55N 36°45' W 043°43'0 0.0 25.8
2014-Aug-14 12:09N 36°45' W 043°43'0 1.7 25.8
2014-Aug-14 12:05N 36°45' W 043°43'1 0.8 25.8
2014-Aug-14 11:17N 36°46' W 043°43'0 0.0 25.8
2014-Aug-14 09:59N 36°46' W 043°43'0 0.0 25.8
2014-Aug-14 09:55N 36°46' W 043°43'1 1.3 25.8
2014-Aug-14 09:28N 36°46' W 043°43'0 0.0 25.8
2014-Aug-14 09:25N 36°46' W 043°43'0 1.4 25.8
2014-Aug-14 09:21N 36°46' W 043°43'0 0.2 25.8
2014-Aug-14 08:45N 36°46' W 043°43'0 0.4 25.9
2014-Aug-14 08:20N 36°47' W 043°43'0 0.8 25.9
2014-Aug-14 07:47N 36°47' W 043°44'0 1.0 25.9
2014-Aug-14 07:38N 36°47' W 043°44'0 0.0 25.9
2014-Aug-14 07:00N 36°47' W 043°44'0 7.5 25.9
2014-Aug-14 06:57N 36°47' W 043°44'0 0.0 25.9
2014-Aug-14 06:37N 36°47' W 043°44'0 0.0 25.9
2014-Aug-14 06:25N 36°47' W 043°44'1 4.9 25.9
2014-Aug-14 06:14N 36°48' W 043°45'0 0.0 25.9
2014-Aug-14 04:41N 36°48' W 043°45'213.4 25.9
2014-Aug-14 04:34N 36°48' W 043°47'0 0.0 25.9
2014-Aug-14 01:30N 36°48' W 043°47'0 3.5 26.0
2014-Aug-14 01:25N 36°48' W 043°47'0 0.0 26.0
2014-Aug-14 00:46N 36°48' W 043°47'127.4 26.0
2014-Aug-14 00:44N 36°48' W 043°48'0 0.0 26.0
2014-Aug-13 23:54N 36°48' W 043°48'0 0.4 26.0
2014-Aug-13 23:06N 36°49' W 043°48'0 2.3 26.0
2014-Aug-13 22:57N 36°49' W 043°49'0 0.0 26.0
2014-Aug-13 22:11N 36°49' W 043°49'1 0.5 26.0
2014-Aug-13 21:10N 36°49' W 043°49'0 0.0 26.1
2014-Aug-13 21:06N 36°49' W 043°49'0 1.2 26.1
2014-Aug-13 20:57N 36°49' W 043°49'0 0.0 26.1
2014-Aug-13 20:24N 36°49' W 043°49'0 4.1 26.2
2014-Aug-13 20:18N 36°49' W 043°50'0 0.6 26.2
2014-Aug-13 19:30N 36°49' W 043°50'0 4.0 26.2
2014-Aug-13 19:27N 36°49' W 043°51'0 0.0 26.2
2014-Aug-13 18:44N 36°49' W 043°51'1 6.1 26.2
2014-Aug-13 18:37N 36°49' W 043°51'0 0.5 26.2
2014-Aug-13 17:59N 36°49' W 043°51'1 4.3 26.2
2014-Aug-13 17:47N 36°49' W 043°52'0 0.0 26.2
2014-Aug-13 17:00N 36°49' W 043°52'0 0.6 26.1
2014-Aug-13 16:19N 36°49' W 043°53'0 5.2 26.1
2014-Aug-13 16:14N 36°49' W 043°53'0 0.0 26.1
2014-Aug-13 14:38N 36°49' W 043°53'1 1.6 26.0
2014-Aug-13 14:13N 36°49' W 043°53'0 0.0 25.9
2014-Aug-13 13:24N 36°49' W 043°53'0 1.2 25.9
2014-Aug-13 13:17N 36°49' W 043°53'0 0.0 25.9
2014-Aug-13 12:29N 36°49' W 043°53'110.7 25.8
2014-Aug-13 12:26N 36°49' W 043°54'0 0.3 25.8
2014-Aug-13 10:48N 36°49' W 043°54'0 0.0 25.7
2014-Aug-13 09:52N 36°49' W 043°54'0 2.3 25.7
2014-Aug-13 09:49N 36°49' W 043°54'111.7 25.7
2014-Aug-13 09:43N 36°50' W 043°55'0 0.0 25.7
2014-Aug-13 08:55N 36°50' W 043°55'0 0.0 25.7
2014-Aug-13 08:52N 36°50' W 043°55'0 0.0 25.7
2014-Aug-13 08:50N 36°50' W 043°55'0 0.0 25.7
2014-Aug-13 08:02N 36°50' W 043°55'0 0.1
2014-Aug-13 07:14N 36°50' W 043°55'0 1.4 25.7
2014-Aug-13 07:12N 36°50' W 043°55'1 7.6 25.7
2014-Aug-13 07:08N 36°51' W 043°55'0 0.0 25.7
2014-Aug-13 06:29N 36°51' W 043°55'228.4 25.7
2014-Aug-13 06:25N 36°51' W 043°57'0 0.0 25.8
2014-Aug-13 04:53N 36°51' W 043°57'319.5 25.8
2014-Aug-13 04:44N 36°52' W 044°01'0 0.0 25.8
2014-Aug-13 01:53N 36°52' W 044°01'1 1.2 25.8
2014-Aug-13 01:06N 36°52' W 044°02'1 5.8 25.8
2014-Aug-13 00:59N 36°51' W 044°03'0 0.0 25.8
2014-Aug-13 00:13N 36°51' W 044°03'111.2 25.8
2014-Aug-13 00:07N 36°51' W 044°04'0 0.1 25.8
2014-Aug-12 23:25N 36°51' W 044°04'1 5.8 25.9
2014-Aug-12 23:19N 36°51' W 044°05'1 7.0 25.9
2014-Aug-12 23:14N 36°51' W 044°04'1 0.8 25.9
2014-Aug-12 22:31N 36°51' W 044°05'0 0.5 25.9
2014-Aug-12 21:38N 36°50' W 044°05'1 7.6 25.9
2014-Aug-12 21:34N 36°50' W 044°05'0 0.3 25.9
2014-Aug-12 20:33N 36°50' W 044°06'1 1.6 25.9
2014-Aug-12 19:56N 36°50' W 044°07'0 0.0 25.9
2014-Aug-12 19:51N 36°50' W 044°07'0 0.0 25.9
2014-Aug-12 18:55N 36°50' W 044°07'0 0.6 25.9
2014-Aug-12 18:14N 36°50' W 044°07'0 1.0 25.9
2014-Aug-12 18:11N 36°50' W 044°07'0 2.9 25.9
2014-Aug-12 18:09N 36°50' W 044°07'1 0.7 25.9
2014-Aug-12 17:14N 36°50' W 044°08'2 3.1 25.9
2014-Aug-12 16:31N 36°50' W 044°11'0 0.0 25.9
2014-Aug-12 16:29N 36°50' W 044°11'0 0.1 25.9
2014-Aug-12 14:49N 36°50' W 044°11'   25.8
Track history (hours):
 
Tides and Currents Weather Stations Pressure Air Temp Water Temp Dewpoint Dewpoint Depression Visibility Wind Speed Wind Dir Waves Ship Positions

Drifting buoy 41991

Last reported at 2014-Aug-22 14:37 UTC. Time now 2014-Aug-22 15:45 UTC.
Position N 36°01' W 044°23'.

Water temperature 26.3 ° C

Date/timePositionNaut miles runAvg speedWind from/ knotsBaromVisibWave heightAir tempDewpointWater temp
2014-Aug-22 14:37N 36°01' W 044°23'0 0.0 26.3
2014-Aug-22 14:26N 36°01' W 044°23'0 0.2 26.3
2014-Aug-22 12:48N 36°01' W 044°23'0 0.0 26.3
2014-Aug-22 12:45N 36°01' W 044°23'0 0.5 26.3
2014-Aug-22 11:51N 36°01' W 044°22'0 0.0 26.2
2014-Aug-22 11:05N 36°01' W 044°22'0 2.6 26.2
2014-Aug-22 10:59N 36°01' W 044°22'0 0.1 26.2
2014-Aug-22 09:32N 36°01' W 044°22'0 3.3 26.2
2014-Aug-22 09:25N 36°02' W 044°21'0 0.4 26.2
2014-Aug-22 09:09N 36°02' W 044°22'0 0.5 26.2
2014-Aug-22 08:58N 36°02' W 044°21'0 0.0 26.2
2014-Aug-22 08:55N 36°02' W 044°21'0 1.5 26.2
2014-Aug-22 08:51N 36°02' W 044°21'1 7.8 26.2
2014-Aug-22 08:47N 36°02' W 044°21'0 0.3 26.2
2014-Aug-22 07:52N 36°02' W 044°21'0 6.3 26.2
2014-Aug-22 07:49N 36°02' W 044°21'0 0.0 26.2
2014-Aug-22 07:29N 36°02' W 044°21'0 0.3 26.2
2014-Aug-22 07:13N 36°02' W 044°21'0 7.3 26.3
2014-Aug-22 07:11N 36°02' W 044°20'0 0.1 26.3
2014-Aug-22 06:36N 36°02' W 044°20'1 5.0 26.3
2014-Aug-22 06:27N 36°02' W 044°20'0 0.0 26.3
2014-Aug-22 04:54N 36°02' W 044°20'1 0.4 26.3
2014-Aug-22 02:06N 36°03' W 044°19'0 0.1 26.4
2014-Aug-22 01:18N 36°03' W 044°19'0 3.2 26.5
2014-Aug-22 01:13N 36°03' W 044°18'0 0.0 26.5
2014-Aug-22 00:28N 36°03' W 044°18'0 0.0 26.5
2014-Aug-22 00:23N 36°03' W 044°18'1 0.8 26.5
2014-Aug-21 23:38N 36°03' W 044°18'0 0.0 26.5
2014-Aug-21 23:29N 36°03' W 044°18'1 1.0 26.6
2014-Aug-21 22:47N 36°03' W 044°18'1 4.2 26.6
2014-Aug-21 22:39N 36°03' W 044°18'0 0.2 26.6
2014-Aug-21 21:55N 36°03' W 044°18'0 0.2 26.6
2014-Aug-21 21:12N 36°03' W 044°18'0 0.4 26.6
2014-Aug-21 20:33N 36°03' W 044°17'0 0.5 26.7
2014-Aug-21 20:06N 36°03' W 044°17'0 0.0 26.7
2014-Aug-21 19:34N 36°03' W 044°17'0 1.6 26.7
2014-Aug-21 19:27N 36°02' W 044°17'0 0.0
2014-Aug-21 18:53N 36°02' W 044°17'0 0.0 26.7
2014-Aug-21 18:10N 36°02' W 044°17'0 1.5 26.7
2014-Aug-21 17:52N 36°03' W 044°18'1 1.9 26.7
2014-Aug-21 17:08N 36°02' W 044°16'0 0.0 26.7
2014-Aug-21 16:30N 36°02' W 044°16'0 0.0 26.6
2014-Aug-21 16:23N 36°02' W 044°16'1 0.4 26.6
2014-Aug-21 14:50N 36°02' W 044°15'1 0.8 26.6
2014-Aug-21 13:59N 36°02' W 044°15'1 8.2 26.5
2014-Aug-21 13:52N 36°01' W 044°14'0 0.7 26.5
2014-Aug-21 13:09N 36°01' W 044°14'0 3.3 26.3
2014-Aug-21 13:00N 36°01' W 044°14'0 0.0 26.3
2014-Aug-21 12:13N 36°01' W 044°14'143.8 26.3
2014-Aug-21 12:12N 36°01' W 044°13'0 0.0 26.2
2014-Aug-21 11:27N 36°01' W 044°13'110.3 26.2
2014-Aug-21 11:22N 36°01' W 044°12'0 0.0 26.2
2014-Aug-21 09:51N 36°01' W 044°12'1 6.3 26.2
2014-Aug-21 09:45N 36°01' W 044°11'0 0.0 26.2
2014-Aug-21 09:06N 36°01' W 044°11'1 5.0 26.2
2014-Aug-21 08:59N 36°01' W 044°10'0 0.1 26.2
2014-Aug-21 08:11N 36°01' W 044°10'0 1.1 26.1
2014-Aug-21 08:00N 36°01' W 044°10'0 0.2 26.2
2014-Aug-21 07:26N 36°01' W 044°10'1 4.5 26.2
2014-Aug-21 07:17N 36°01' W 044°09'0 0.0 26.2
2014-Aug-21 06:47N 36°01' W 044°09'1 3.6 26.2
2014-Aug-21 06:38N 36°01' W 044°09'0 0.0 26.2
2014-Aug-21 06:19N 36°01' W 044°09'0 0.0 26.2
2014-Aug-21 05:41N 36°01' W 044°09'0 0.0 26.2
2014-Aug-21 05:00N 36°01' W 044°09'141.7 26.2
2014-Aug-21 04:58N 36°02' W 044°07'0 0.0 26.2
2014-Aug-21 03:22N 36°02' W 044°07'0 0.0 26.2
2014-Aug-21 03:18N 36°02' W 044°07'0 0.0 26.2
2014-Aug-21 01:35N 36°02' W 044°07'0 0.1 26.2
2014-Aug-21 00:45N 36°02' W 044°07'0 0.3 26.3
2014-Aug-20 23:59N 36°01' W 044°07'0 2.7 26.4
2014-Aug-20 23:52N 36°01' W 044°07'0 0.0 26.4
2014-Aug-20 23:09N 36°01' W 044°07'0 2.3 26.4
2014-Aug-20 23:00N 36°01' W 044°07'0 0.0 26.3
2014-Aug-20 22:26N 36°01' W 044°07'0 1.8 26.3
2014-Aug-20 22:13N 36°01' W 044°06'0 0.0 26.4
2014-Aug-20 20:43N 36°01' W 044°06'0 2.7 26.6
2014-Aug-20 20:35N 36°01' W 044°06'0 0.2 26.6
2014-Aug-20 20:00N 36°01' W 044°06'1 5.9 26.6
2014-Aug-20 19:53N 36°01' W 044°05'0 0.0 26.6
2014-Aug-20 18:59N 36°01' W 044°05'012.7 26.6
2014-Aug-20 18:57N 36°00' W 044°05'0 0.0 26.6
2014-Aug-20 18:22N 36°00' W 044°05'0 0.5 26.6
2014-Aug-20 18:13N 36°00' W 044°05'2 1.9 26.6
2014-Aug-20 17:23N 35°59' W 044°04'0 0.1 26.6
2014-Aug-20 16:44N 35°59' W 044°04'1 7.0 26.6
2014-Aug-20 16:35N 35°59' W 044°03'0 0.0 26.6
2014-Aug-20 15:04N 35°59' W 044°03'0 0.0 26.6
2014-Aug-20 15:00N 35°59' W 044°03'0 0.5 26.6
2014-Aug-20 14:21N 35°59' W 044°02'1 8.3 26.6
2014-Aug-20 14:14N 35°59' W 044°01'0 0.0 26.6
2014-Aug-20 12:39N 35°59' W 044°01'1 6.3 26.2
2014-Aug-20 12:32N 35°59' W 044°00'1 0.7 26.2
2014-Aug-20 11:42N 35°59' W 044°01'1 0.6 26.0
2014-Aug-20 10:18N 35°58' W 044°00'0 0.6 26.0
2014-Aug-20 10:13N 35°58' W 044°00'0 2.8 26.0
2014-Aug-20 10:09N 35°58' W 044°00'1 0.9 26.0
2014-Aug-20 09:18N 35°59' W 043°59'1 1.2 26.0
2014-Aug-20 08:33N 35°59' W 043°58'0 0.0 26.0
2014-Aug-20 07:36N 35°59' W 043°58'0 3.7 26.1
2014-Aug-20 07:31N 35°59' W 043°58'0 0.2 26.1
2014-Aug-20 06:57N 35°59' W 043°58'0 2.8 26.1
2014-Aug-20 06:53N 35°59' W 043°58'0 0.0 26.1
2014-Aug-20 06:50N 35°59' W 043°58'0 0.0 26.1
2014-Aug-20 05:56N 35°59' W 043°58'0 0.3 26.1
2014-Aug-20 05:13N 35°59' W 043°58'1 6.2 26.2
2014-Aug-20 05:08N 35°59' W 043°57'0 0.0 26.2
2014-Aug-20 03:35N 35°59' W 043°57'0 0.9 26.2
2014-Aug-20 03:30N 35°59' W 043°57'0 0.2 26.2
2014-Aug-20 01:57N 35°59' W 043°57'0 0.2 26.2
2014-Aug-20 01:09N 35°58' W 043°57'0 1.5 26.2
2014-Aug-20 01:00N 35°59' W 043°57'0 0.6 26.2
2014-Aug-20 00:19N 35°58' W 043°57'0 0.0 26.2
2014-Aug-19 23:29N 35°58' W 043°57'0 1.7 26.2
2014-Aug-19 23:20N 35°59' W 043°57'0 0.0 26.2
2014-Aug-19 22:55N 35°59' W 043°57'0 1.2 26.2
2014-Aug-19 22:41N 35°58' W 043°57'113.2 26.2
2014-Aug-19 22:36N 35°57' W 043°57'0 0.0 26.2
2014-Aug-19 21:46N 35°57' W 043°57'0 0.0 26.3
2014-Aug-19 20:54N 35°57' W 043°57'121.7 26.3
2014-Aug-19 20:51N 35°57' W 043°56'0 0.0 26.3
2014-Aug-19 20:22N 35°57' W 043°56'0 0.0 26.3
2014-Aug-19 19:30N 35°57' W 043°56'0 0.0 26.4
2014-Aug-19 19:14N 35°57' W 043°56'0 0.2 26.4
2014-Aug-19 18:44N 35°57' W 043°56'0 0.8 26.5
2014-Aug-19 18:37N 35°57' W 043°56'1 5.4 26.5
2014-Aug-19 18:31N 35°57' W 043°55'0 0.0 26.5
2014-Aug-19 17:34N 35°57' W 043°55'026.5 26.3
2014-Aug-19 17:33N 35°57' W 043°55'0 0.0 26.3
2014-Aug-19 16:53N 35°57' W 043°55'1 0.8 26.3
2014-Aug-19 15:12N 35°57' W 043°53'1 0.4 26.2
2014-Aug-19 13:50N 35°57' W 043°53'0 0.0 26.1
2014-Aug-19 13:03N 35°57' W 043°53'0 0.0 26.0
2014-Aug-19 13:00N 35°57' W 043°53'0 0.4 26.0
2014-Aug-19 12:08N 35°57' W 043°52'0 2.9 26.0
2014-Aug-19 12:03N 35°57' W 043°52'1 1.2 26.0
2014-Aug-19 11:20N 35°58' W 043°53'110.2 25.9
2014-Aug-19 11:16N 35°58' W 043°54'1 0.9 25.9
2014-Aug-19 10:37N 35°58' W 043°53'0 0.0 25.9
2014-Aug-19 09:29N 35°58' W 043°53'0 2.0 25.9
2014-Aug-19 09:22N 35°58' W 043°53'0 0.0 25.9
2014-Aug-19 08:59N 35°58' W 043°53'0 4.6 25.9
2014-Aug-19 08:55N 35°58' W 043°53'0 0.0 25.9
2014-Aug-19 07:48N 35°58' W 043°53'0 0.8 26.0
2014-Aug-19 07:24N 35°58' W 043°53'0 0.0 26.0
2014-Aug-19 07:23N 35°58' W 043°53'0 0.9 26.0
2014-Aug-19 07:08N 35°58' W 043°53'0 1.0 26.0
2014-Aug-19 07:00N 35°58' W 043°53'0 0.0
2014-Aug-19 05:27N 35°58' W 043°53'0 3.2 26.0
2014-Aug-19 05:21N 35°57' W 043°53'0 0.0 26.0
2014-Aug-19 03:45N 35°57' W 043°53'1 9.6 26.0
2014-Aug-19 03:40N 35°57' W 043°53'0 0.1 26.0
2014-Aug-19 01:28N 35°57' W 043°53'0 1.0 26.2
2014-Aug-19 01:22N 35°57' W 043°53'0 0.2 26.2
2014-Aug-19 00:43N 35°56' W 043°53'0 0.1 26.2
2014-Aug-18 23:44N 35°57' W 043°53'0 0.6 26.2
2014-Aug-18 23:23N 35°57' W 043°52'0 0.9 26.2
2014-Aug-18 23:00N 35°56' W 043°53'0 0.4 26.2
2014-Aug-18 22:08N 35°56' W 043°52'0 5.3 26.3
2014-Aug-18 22:03N 35°56' W 043°52'0 0.0 26.3
2014-Aug-18 21:45N 35°56' W 043°52'0 0.2 26.3
2014-Aug-18 20:44N 35°56' W 043°52'0 0.1 26.4
2014-Aug-18 20:07N 35°56' W 043°52'0 1.3 26.4
2014-Aug-18 20:00N 35°56' W 043°52'0 0.1 26.4
2014-Aug-18 19:28N 35°56' W 043°52'1 1.7 26.4
2014-Aug-18 19:06N 35°56' W 043°51'0 0.0 26.5
2014-Aug-18 17:46N 35°56' W 043°51'0 1.4 26.4
2014-Aug-18 17:25N 35°56' W 043°50'0 0.1 26.4
2014-Aug-18 17:05N 35°56' W 043°50'0 0.6 26.4
2014-Aug-18 17:00N 35°56' W 043°50'1 0.6 26.4
2014-Aug-18 15:23N 35°56' W 043°49'1 0.8 26.4
2014-Aug-18 14:10N 35°57' W 043°49'0 0.0 26.2
2014-Aug-18 13:24N 35°57' W 043°49'1 4.0 26.1
2014-Aug-18 13:13N 35°58' W 043°49'0 0.6 26.0
2014-Aug-18 12:21N 35°58' W 043°49'2 1.9 26.0
2014-Aug-18 11:33N 35°59' W 043°51'0 0.0 25.9
2014-Aug-18 10:45N 35°59' W 043°51'0 0.0 25.9
2014-Aug-18 09:41N 35°59' W 043°51'0 2.0 25.9
2014-Aug-18 09:34N 35°59' W 043°51'0 0.0 25.9
2014-Aug-18 09:30N 35°59' W 043°51'0 2.4 25.8
2014-Aug-18 09:25N 35°59' W 043°51'0 0.0 25.8
2014-Aug-18 07:59N 35°59' W 043°51'0 1.1 25.9
2014-Aug-18 07:47N 35°59' W 043°51'0 2.1 25.9
2014-Aug-18 07:40N 35°59' W 043°51'0 0.0 25.9
2014-Aug-18 07:18N 35°59' W 043°51'0 3.8 25.9
2014-Aug-18 07:13N 35°59' W 043°51'0 0.0 25.9
2014-Aug-18 06:19N 35°59' W 043°51'0 2.2 25.9
2014-Aug-18 06:14N 35°59' W 043°51'0 0.3 25.9
2014-Aug-18 05:35N 35°59' W 043°51'0 0.3 25.9
2014-Aug-18 03:57N 35°58' W 043°51'113.1 26.0
2014-Aug-18 03:51N 35°57' W 043°50'0 0.0 26.0
2014-Aug-18 01:48N 35°57' W 043°50'0 5.0 26.0
2014-Aug-18 01:43N 35°57' W 043°50'0 0.0 26.0
2014-Aug-18 01:00N 35°57' W 043°50'1 7.1 26.0
2014-Aug-18 00:55N 35°57' W 043°49'0 0.0 26.0
2014-Aug-18 00:10N 35°57' W 043°49'0 0.0 26.0
2014-Aug-18 00:05N 35°57' W 043°49'0 0.3 26.0
2014-Aug-17 23:22N 35°57' W 043°49'1 4.4 26.1
2014-Aug-17 23:13N 35°58' W 043°49'0 0.0 26.2
2014-Aug-17 22:29N 35°58' W 043°49'1 3.7 26.3
2014-Aug-17 22:20N 35°58' W 043°48'0 4.9 26.3
2014-Aug-17 22:14N 35°58' W 043°49'0 0.5 26.3
2014-Aug-17 21:12N 35°58' W 043°48'1 1.3 26.6
2014-Aug-17 20:29N 35°59' W 043°47'0 0.0
2014-Aug-17 19:39N 35°59' W 043°47'0 1.1 26.9
2014-Aug-17 19:32N 35°59' W 043°47'1 0.8 26.9
2014-Aug-17 17:57N 35°60' W 043°46'1 4.7 27.0
2014-Aug-17 17:49N 36°00' W 043°46'0 0.2 27.0
2014-Aug-17 17:15N 36°01' W 043°46'2 0.9 26.9
2014-Aug-17 15:29N 36°02' W 043°45'2 1.5 26.6
2014-Aug-17 14:29N 36°03' W 043°46'0 0.2 26.2
2014-Aug-17 13:44N 36°03' W 043°46'1 4.8 26.0
2014-Aug-17 13:35N 36°04' W 043°46'1 0.8 26.0
2014-Aug-17 12:42N 36°05' W 043°47'0 0.0 25.9
2014-Aug-17 11:59N 36°05' W 043°47'1 1.1 25.8
2014-Aug-17 11:04N 36°05' W 043°48'0 0.2 25.8
2014-Aug-17 09:51N 36°05' W 043°48'0 1.2 25.8
2014-Aug-17 09:47N 36°05' W 043°48'0 0.0 25.8
2014-Aug-17 08:27N 36°05' W 043°48'0 0.6 25.8
2014-Aug-17 08:11N 36°05' W 043°48'1 5.8 25.8
2014-Aug-17 08:05N 36°05' W 043°49'0 0.0 25.8
2014-Aug-17 07:28N 36°05' W 043°49'1 9.9 25.8
2014-Aug-17 07:23N 36°05' W 043°48'0 0.0 25.8
2014-Aug-17 06:45N 36°05' W 043°48'0 0.4 25.8
2014-Aug-17 06:27N 36°05' W 043°48'1 1.9 25.8
2014-Aug-17 05:45N 36°05' W 043°46'0 0.0 25.8
2014-Aug-17 05:39N 36°05' W 043°46'0 0.1 25.8
2014-Aug-17 04:08N 36°05' W 043°46'210.3 25.8
2014-Aug-17 03:59N 36°06' W 043°45'0 0.0 25.8
2014-Aug-17 02:09N 36°06' W 043°45'2 2.2 25.9
2014-Aug-17 01:22N 36°07' W 043°43'0 0.0 25.9
2014-Aug-17 00:31N 36°07' W 043°43'0 0.7 25.9
2014-Aug-17 00:27N 36°07' W 043°43'1 1.5 25.9
2014-Aug-16 23:41N 36°08' W 043°42'1 7.0 25.9
2014-Aug-16 23:34N 36°09' W 043°41'0 0.0 25.9
2014-Aug-16 22:51N 36°09' W 043°41'0 0.0 25.9
2014-Aug-16 22:47N 36°09' W 043°41'127.3 25.9
2014-Aug-16 22:44N 36°10' W 043°41'0 0.0 25.9
2014-Aug-16 21:34N 36°10' W 043°41'1 2.2 25.9
2014-Aug-16 21:13N 36°11' W 043°41'2 7.0 25.9
2014-Aug-16 21:00N 36°12' W 043°41'0 0.2 25.9
2014-Aug-16 19:51N 36°13' W 043°41'1 3.5 26.0
2014-Aug-16 19:26N 36°14' W 043°41'0 0.1 26.0
2014-Aug-16 18:13N 36°14' W 043°41'0 0.0 26.0
2014-Aug-16 18:07N 36°14' W 043°41'0 0.7 26.0
2014-Aug-16 18:00N 36°14' W 043°41'1 1.4 26.0
2014-Aug-16 17:26N 36°15' W 043°41'112.5 26.0
2014-Aug-16 17:19N 36°16' W 043°42'0 0.2 26.0
2014-Aug-16 15:45N 36°16' W 043°42'1 0.6 26.0
2014-Aug-16 13:59N 36°17' W 043°42'0 2.4 25.9
2014-Aug-16 13:56N 36°18' W 043°42'121.1 25.9
2014-Aug-16 13:54N 36°18' W 043°42'0 0.0 25.9
2014-Aug-16 12:23N 36°18' W 043°42'0 2.6 25.8
2014-Aug-16 12:14N 36°19' W 043°42'0 0.2 25.8
2014-Aug-16 11:24N 36°19' W 043°42'1 1.0 25.7
2014-Aug-16 10:13N 36°20' W 043°41'0 0.0 25.7
2014-Aug-16 09:59N 36°20' W 043°41'0 0.0 25.7
2014-Aug-16 08:58N 36°20' W 043°41'0 0.5 25.7
2014-Aug-16 08:37N 36°20' W 043°41'0 1.1 25.7
2014-Aug-16 08:21N 36°20' W 043°41'1 9.1 25.7
2014-Aug-16 08:17N 36°20' W 043°40'0 0.0 25.7
2014-Aug-16 07:38N 36°20' W 043°40'0 0.0 25.7
2014-Aug-16 07:18N 36°20' W 043°40'1 1.5 25.7
2014-Aug-16 06:57N 36°21' W 043°40'0 0.3 25.7
2014-Aug-16 06:42N 36°21' W 043°40'1 5.7 25.7
2014-Aug-16 06:35N 36°21' W 043°40'0 0.0 25.7
2014-Aug-16 06:00N 36°21' W 043°40'0 1.4 25.8
2014-Aug-16 05:58N 36°21' W 043°40'117.0 25.8
2014-Aug-16 05:54N 36°21' W 043°39'240.8 25.8
2014-Aug-16 05:51N 36°23' W 043°39'0 0.0 25.8
2014-Aug-16 04:20N 36°23' W 043°39'433.4 25.8
2014-Aug-16 04:13N 36°26' W 043°37'0 0.1 25.8
2014-Aug-16 00:53N 36°26' W 043°37'2 2.6 25.9
2014-Aug-16 00:05N 36°28' W 043°36'0 0.0 25.9
2014-Aug-15 23:58N 36°28' W 043°36'0 0.0 25.9
2014-Aug-15 23:18N 36°28' W 043°36'0 1.6 25.9
2014-Aug-15 23:11N 36°28' W 043°36'1 7.8 25.9
2014-Aug-15 23:04N 36°29' W 043°36'0 0.0 25.9
2014-Aug-15 22:23N 36°29' W 043°36'1 1.0 26.0
2014-Aug-15 21:44N 36°30' W 043°36'2 1.3 26.1
2014-Aug-15 20:22N 36°32' W 043°37'010.7 26.3
2014-Aug-15 20:20N 36°32' W 043°37'0 0.0 26.3
2014-Aug-15 19:59N 36°32' W 043°37'122.2 26.3
2014-Aug-15 19:55N 36°33' W 043°38'0 0.2 26.3
2014-Aug-15 18:42N 36°33' W 043°37'0 0.0 26.3
2014-Aug-15 18:37N 36°33' W 043°37'0 0.3 26.3
2014-Aug-15 18:21N 36°33' W 043°37'1 1.1 26.2
2014-Aug-15 17:38N 36°34' W 043°38'1 0.8 26.1
2014-Aug-15 16:37N 36°35' W 043°39'0 0.0 26.0
2014-Aug-15 15:56N 36°35' W 043°39'0 0.0 25.9
2014-Aug-15 15:06N 36°35' W 043°39'1 1.1 25.9
2014-Aug-15 14:23N 36°35' W 043°39'1 3.7 25.8
2014-Aug-15 14:13N 36°35' W 043°39'1 0.6 25.8
2014-Aug-15 12:42N 36°35' W 043°39'0 0.5 25.8
2014-Aug-15 11:52N 36°36' W 043°39'0 1.7 25.8
2014-Aug-15 11:48N 36°36' W 043°39'119.6 25.8
2014-Aug-15 11:45N 36°37' W 043°39'0 0.0 25.8
2014-Aug-15 10:39N 36°37' W 043°39'0 1.7 25.7
2014-Aug-15 10:35N 36°37' W 043°39'0 0.0 25.7
2014-Aug-15 09:29N 36°37' W 043°39'0 0.5 25.7
2014-Aug-15 08:59N 36°37' W 043°39'0 4.5 25.7
2014-Aug-15 08:54N 36°37' W 043°39'0 0.1 25.7
2014-Aug-15 08:34N 36°37' W 043°39'0 2.1 25.7
2014-Aug-15 08:25N 36°38' W 043°39'0 0.1 25.7
2014-Aug-15 07:48N 36°38' W 043°39'0 0.9 25.8
2014-Aug-15 07:23N 36°38' W 043°39'0 1.4 25.8
2014-Aug-15 07:14N 36°38' W 043°39'0 0.0 25.8
2014-Aug-15 06:54N 36°38' W 043°39'0 4.1 25.8
2014-Aug-15 06:47N 36°39' W 043°39'0 0.0 25.8
2014-Aug-15 06:13N 36°39' W 043°39'0 1.0 25.8
2014-Aug-15 06:06N 36°39' W 043°39'118.7 25.8
2014-Aug-15 06:02N 36°40' W 043°39'0 0.0 25.8
2014-Aug-15 04:30N 36°40' W 043°39'215.0 25.8
2014-Aug-15 04:22N 36°42' W 043°40'0 0.1 25.8
2014-Aug-15 01:13N 36°42' W 043°40'1 6.0 25.8
2014-Aug-15 01:04N 36°42' W 043°41'0 0.0 25.8
2014-Aug-15 00:25N 36°42' W 043°41'0 0.6 25.9
2014-Aug-14 23:34N 36°43' W 043°41'1 3.6 25.9
2014-Aug-14 23:25N 36°43' W 043°41'0 0.0 25.9
2014-Aug-14 22:44N 36°43' W 043°41'0 2.5 25.9
2014-Aug-14 22:36N 36°43' W 043°42'0 0.0 25.9
2014-Aug-14 22:15N 36°43' W 043°42'1 0.8 25.9
2014-Aug-14 20:46N 36°44' W 043°43'0 0.0 26.0
2014-Aug-14 20:28N 36°44' W 043°43'0 4.9 26.0
2014-Aug-14 20:25N 36°44' W 043°43'0 1.8 26.0
2014-Aug-14 20:12N 36°44' W 043°43'1 0.7 26.0
2014-Aug-14 19:08N 36°44' W 043°43'0 0.4 26.0
2014-Aug-14 18:32N 36°44' W 043°44'0 0.6 26.0
2014-Aug-14 17:48N 36°44' W 043°44'0 0.3 26.0
2014-Aug-14 16:49N 36°44' W 043°43'0 0.0 25.9
2014-Aug-14 16:08N 36°44' W 043°43'1 0.5 25.9
2014-Aug-14 14:37N 36°44' W 043°43'0 0.0 25.8
2014-Aug-14 14:26N 36°44' W 043°43'0 0.2 25.8
2014-Aug-14 13:06N 36°45' W 043°43'1 3.2 25.7
2014-Aug-14 12:55N 36°45' W 043°43'0 0.0 25.8
2014-Aug-14 12:09N 36°45' W 043°43'0 1.7 25.8
2014-Aug-14 12:05N 36°45' W 043°43'1 0.8 25.8
2014-Aug-14 11:17N 36°46' W 043°43'0 0.0 25.8
2014-Aug-14 09:59N 36°46' W 043°43'0 0.0 25.8
2014-Aug-14 09:55N 36°46' W 043°43'1 1.3 25.8
2014-Aug-14 09:28N 36°46' W 043°43'0 0.0 25.8
2014-Aug-14 09:25N 36°46' W 043°43'0 1.4 25.8
2014-Aug-14 09:21N 36°46' W 043°43'0 0.2 25.8
2014-Aug-14 08:45N 36°46' W 043°43'0 0.4 25.9
2014-Aug-14 08:20N 36°47' W 043°43'0 0.8 25.9
2014-Aug-14 07:47N 36°47' W 043°44'0 1.0 25.9
2014-Aug-14 07:38N 36°47' W 043°44'0 0.0 25.9
2014-Aug-14 07:00N 36°47' W 043°44'0 7.5 25.9
2014-Aug-14 06:57N 36°47' W 043°44'0 0.0 25.9
2014-Aug-14 06:37N 36°47' W 043°44'0 0.0 25.9
2014-Aug-14 06:25N 36°47' W 043°44'1 4.9 25.9
2014-Aug-14 06:14N 36°48' W 043°45'0 0.0 25.9
2014-Aug-14 04:41N 36°48' W 043°45'213.4 25.9
2014-Aug-14 04:34N 36°48' W 043°47'0 0.0 25.9
2014-Aug-14 01:30N 36°48' W 043°47'0 3.5 26.0
2014-Aug-14 01:25N 36°48' W 043°47'0 0.0 26.0
2014-Aug-14 00:46N 36°48' W 043°47'127.4 26.0
2014-Aug-14 00:44N 36°48' W 043°48'0 0.0 26.0
2014-Aug-13 23:54N 36°48' W 043°48'0 0.4 26.0
2014-Aug-13 23:06N 36°49' W 043°48'0 2.3 26.0
2014-Aug-13 22:57N 36°49' W 043°49'0 0.0 26.0
2014-Aug-13 22:11N 36°49' W 043°49'1 0.5 26.0
2014-Aug-13 21:10N 36°49' W 043°49'0 0.0 26.1
2014-Aug-13 21:06N 36°49' W 043°49'0 1.2 26.1
2014-Aug-13 20:57N 36°49' W 043°49'0 0.0 26.1
2014-Aug-13 20:24N 36°49' W 043°49'0 4.1 26.2
2014-Aug-13 20:18N 36°49' W 043°50'0 0.6 26.2
2014-Aug-13 19:30N 36°49' W 043°50'0 4.0 26.2
2014-Aug-13 19:27N 36°49' W 043°51'0 0.0 26.2
2014-Aug-13 18:44N 36°49' W 043°51'1 6.1 26.2
2014-Aug-13 18:37N 36°49' W 043°51'0 0.5 26.2
2014-Aug-13 17:59N 36°49' W 043°51'1 4.3 26.2
2014-Aug-13 17:47N 36°49' W 043°52'0 0.0 26.2
2014-Aug-13 17:00N 36°49' W 043°52'0 0.6 26.1
2014-Aug-13 16:19N 36°49' W 043°53'0 5.2 26.1
2014-Aug-13 16:14N 36°49' W 043°53'0 0.0 26.1
2014-Aug-13 14:38N 36°49' W 043°53'1 1.6 26.0
2014-Aug-13 14:13N 36°49' W 043°53'0 0.0 25.9
2014-Aug-13 13:24N 36°49' W 043°53'0 1.2 25.9
2014-Aug-13 13:17N 36°49' W 043°53'0 0.0 25.9
2014-Aug-13 12:29N 36°49' W 043°53'110.7 25.8
2014-Aug-13 12:26N 36°49' W 043°54'0 0.3 25.8
2014-Aug-13 10:48N 36°49' W 043°54'0 0.0 25.7
2014-Aug-13 09:52N 36°49' W 043°54'0 2.3 25.7
2014-Aug-13 09:49N 36°49' W 043°54'111.7 25.7
2014-Aug-13 09:43N 36°50' W 043°55'0 0.0 25.7
2014-Aug-13 08:55N 36°50' W 043°55'0 0.0 25.7
2014-Aug-13 08:52N 36°50' W 043°55'0 0.0 25.7
2014-Aug-13 08:50N 36°50' W 043°55'0 0.0 25.7
2014-Aug-13 08:02N 36°50' W 043°55'0 0.1
2014-Aug-13 07:14N 36°50' W 043°55'0 1.4 25.7
2014-Aug-13 07:12N 36°50' W 043°55'1 7.6 25.7
2014-Aug-13 07:08N 36°51' W 043°55'0 0.0 25.7
2014-Aug-13 06:29N 36°51' W 043°55'228.4 25.7
2014-Aug-13 06:25N 36°51' W 043°57'0 0.0 25.8
2014-Aug-13 04:53N 36°51' W 043°57'319.5 25.8
2014-Aug-13 04:44N 36°52' W 044°01'0 0.0 25.8
2014-Aug-13 01:53N 36°52' W 044°01'1 1.2 25.8
2014-Aug-13 01:06N 36°52' W 044°02'1 5.8 25.8
2014-Aug-13 00:59N 36°51' W 044°03'0 0.0 25.8
2014-Aug-13 00:13N 36°51' W 044°03'111.2 25.8
2014-Aug-13 00:07N 36°51' W 044°04'0 0.1 25.8
2014-Aug-12 23:25N 36°51' W 044°04'1 5.8 25.9
2014-Aug-12 23:19N 36°51' W 044°05'1 7.0 25.9
2014-Aug-12 23:14N 36°51' W 044°04'1 0.8 25.9
2014-Aug-12 22:31N 36°51' W 044°05'0 0.5 25.9
2014-Aug-12 21:38N 36°50' W 044°05'1 7.6 25.9
2014-Aug-12 21:34N 36°50' W 044°05'0 0.3 25.9
2014-Aug-12 20:33N 36°50' W 044°06'1 1.6 25.9
2014-Aug-12 19:56N 36°50' W 044°07'0 0.0 25.9
2014-Aug-12 19:51N 36°50' W 044°07'0 0.0 25.9
2014-Aug-12 18:55N 36°50' W 044°07'0 0.6 25.9
2014-Aug-12 18:14N 36°50' W 044°07'0 1.0 25.9
2014-Aug-12 18:11N 36°50' W 044°07'0 2.9 25.9
2014-Aug-12 18:09N 36°50' W 044°07'1 0.7 25.9
2014-Aug-12 17:14N 36°50' W 044°08'2 3.1 25.9
2014-Aug-12 16:31N 36°50' W 044°11'0 0.0 25.9
2014-Aug-12 16:29N 36°50' W 044°11'0 0.1 25.9
2014-Aug-12 14:49N 36°50' W 044°11'   25.8

Dump ship's entire track history